sensor_id;sensor_type;location;lat;lon;timestamp;P1;durP1;ratioP1;P2;durP2;ratioP2
68942;SDS011;60852;52.190;4.422;2023-08-06T00:01:38;7.76;;;7.76;;
68942;SDS011;60852;52.190;4.422;2023-08-06T00:04:04;7.85;;;7.85;;
68942;SDS011;60852;52.190;4.422;2023-08-06T00:06:29;7.90;;;7.90;;
68942;SDS011;60852;52.190;4.422;2023-08-06T00:08:55;7.61;;;7.61;;
68942;SDS011;60852;52.190;4.422;2023-08-06T00:11:20;7.87;;;7.87;;
68942;SDS011;60852;52.190;4.422;2023-08-06T00:13:46;7.65;;;7.65;;
68942;SDS011;60852;52.190;4.422;2023-08-06T00:16:11;7.57;;;7.57;;
68942;SDS011;60852;52.190;4.422;2023-08-06T00:18:38;7.28;;;7.28;;
68942;SDS011;60852;52.190;4.422;2023-08-06T00:21:04;7.07;;;7.07;;
68942;SDS011;60852;52.190;4.422;2023-08-06T00:23:30;6.98;;;6.98;;
68942;SDS011;60852;52.190;4.422;2023-08-06T00:25:56;6.47;;;6.47;;
68942;SDS011;60852;52.190;4.422;2023-08-06T00:28:21;6.44;;;6.44;;
68942;SDS011;60852;52.190;4.422;2023-08-06T00:30:52;6.56;;;6.56;;
68942;SDS011;60852;52.190;4.422;2023-08-06T00:33:18;7.01;;;7.01;;
68942;SDS011;60852;52.190;4.422;2023-08-06T00:35:43;7.17;;;7.17;;
68942;SDS011;60852;52.190;4.422;2023-08-06T00:38:09;6.82;;;6.82;;
68942;SDS011;60852;52.190;4.422;2023-08-06T00:40:34;6.84;;;6.84;;
68942;SDS011;60852;52.190;4.422;2023-08-06T00:43:00;7.00;;;7.00;;
68942;SDS011;60852;52.190;4.422;2023-08-06T00:45:25;7.58;;;7.57;;
68942;SDS011;60852;52.190;4.422;2023-08-06T00:47:52;7.42;;;7.42;;
68942;SDS011;60852;52.190;4.422;2023-08-06T00:50:18;7.55;;;7.55;;
68942;SDS011;60852;52.190;4.422;2023-08-06T00:52:46;7.46;;;7.46;;
68942;SDS011;60852;52.190;4.422;2023-08-06T00:55:12;7.67;;;7.67;;
68942;SDS011;60852;52.190;4.422;2023-08-06T00:57:37;7.21;;;7.21;;
68942;SDS011;60852;52.190;4.422;2023-08-06T01:00:03;7.18;;;7.18;;
68942;SDS011;60852;52.190;4.422;2023-08-06T01:02:29;6.76;;;6.76;;
68942;SDS011;60852;52.190;4.422;2023-08-06T01:04:55;6.53;;;6.53;;
68942;SDS011;60852;52.190;4.422;2023-08-06T01:13:05;5.90;;;5.90;;
68942;SDS011;60852;52.190;4.422;2023-08-06T01:15:46;5.80;;;5.80;;
68942;SDS011;60852;52.190;4.422;2023-08-06T01:18:17;6.66;;;6.66;;
68942;SDS011;60852;52.190;4.422;2023-08-06T01:20:43;6.74;;;6.74;;
68942;SDS011;60852;52.190;4.422;2023-08-06T01:23:08;7.10;;;7.08;;
68942;SDS011;60852;52.190;4.422;2023-08-06T01:25:35;7.03;;;7.03;;
68942;SDS011;60852;52.190;4.422;2023-08-06T01:28:29;7.80;;;7.70;;
68942;SDS011;60852;52.190;4.422;2023-08-06T01:33:56;7.37;;;7.37;;
68942;SDS011;60852;52.190;4.422;2023-08-06T01:36:24;6.66;;;6.66;;
68942;SDS011;60852;52.190;4.422;2023-08-06T01:38:52;6.60;;;6.60;;
68942;SDS011;60852;52.190;4.422;2023-08-06T01:41:18;6.12;;;6.12;;
68942;SDS011;60852;52.190;4.422;2023-08-06T01:43:44;5.96;;;5.96;;
68942;SDS011;60852;52.190;4.422;2023-08-06T01:46:09;6.24;;;6.24;;
68942;SDS011;60852;52.190;4.422;2023-08-06T01:48:35;6.26;;;6.26;;
68942;SDS011;60852;52.190;4.422;2023-08-06T01:51:01;6.05;;;6.05;;
68942;SDS011;60852;52.190;4.422;2023-08-06T01:53:28;5.33;;;5.33;;
68942;SDS011;60852;52.190;4.422;2023-08-06T01:55:54;4.70;;;4.70;;
68942;SDS011;60852;52.190;4.422;2023-08-06T01:58:19;4.58;;;4.58;;
68942;SDS011;60852;52.190;4.422;2023-08-06T02:00:44;4.36;;;4.36;;
68942;SDS011;60852;52.190;4.422;2023-08-06T02:03:10;4.39;;;4.39;;
68942;SDS011;60852;52.190;4.422;2023-08-06T02:05:35;3.89;;;3.89;;
68942;SDS011;60852;52.190;4.422;2023-08-06T02:08:01;4.12;;;4.12;;
68942;SDS011;60852;52.190;4.422;2023-08-06T02:10:26;4.48;;;4.48;;
68942;SDS011;60852;52.190;4.422;2023-08-06T02:12:52;4.75;;;4.75;;
68942;SDS011;60852;52.190;4.422;2023-08-06T02:15:17;5.23;;;5.23;;
68942;SDS011;60852;52.190;4.422;2023-08-06T02:17:43;5.36;;;5.36;;
68942;SDS011;60852;52.190;4.422;2023-08-06T02:20:08;6.10;;;6.10;;
68942;SDS011;60852;52.190;4.422;2023-08-06T02:22:34;6.38;;;6.38;;
68942;SDS011;60852;52.190;4.422;2023-08-06T02:25:00;6.22;;;6.22;;
68942;SDS011;60852;52.190;4.422;2023-08-06T02:27:25;6.74;;;6.74;;
68942;SDS011;60852;52.190;4.422;2023-08-06T02:29:51;7.14;;;7.14;;
68942;SDS011;60852;52.190;4.422;2023-08-06T02:32:16;7.13;;;7.13;;
68942;SDS011;60852;52.190;4.422;2023-08-06T02:34:42;8.75;;;8.72;;
68942;SDS011;60852;52.190;4.422;2023-08-06T02:37:07;9.87;;;9.87;;
68942;SDS011;60852;52.190;4.422;2023-08-06T02:39:33;10.82;;;10.82;;
68942;SDS011;60852;52.190;4.422;2023-08-06T02:41:59;11.96;;;11.96;;
68942;SDS011;60852;52.190;4.422;2023-08-06T02:44:28;13.26;;;13.26;;
68942;SDS011;60852;52.190;4.422;2023-08-06T02:46:53;13.53;;;13.53;;
68942;SDS011;60852;52.190;4.422;2023-08-06T02:49:19;13.95;;;13.95;;
68942;SDS011;60852;52.190;4.422;2023-08-06T02:51:45;14.31;;;14.31;;
68942;SDS011;60852;52.190;4.422;2023-08-06T02:54:10;14.40;;;14.40;;
68942;SDS011;60852;52.190;4.422;2023-08-06T02:56:36;15.31;;;15.31;;
68942;SDS011;60852;52.190;4.422;2023-08-06T02:59:01;15.02;;;15.02;;
68942;SDS011;60852;52.190;4.422;2023-08-06T03:01:27;14.52;;;14.52;;
68942;SDS011;60852;52.190;4.422;2023-08-06T03:03:53;12.89;;;12.89;;
68942;SDS011;60852;52.190;4.422;2023-08-06T03:06:19;11.74;;;11.74;;
68942;SDS011;60852;52.190;4.422;2023-08-06T03:08:44;9.54;;;9.54;;
68942;SDS011;60852;52.190;4.422;2023-08-06T03:11:10;8.76;;;8.76;;
68942;SDS011;60852;52.190;4.422;2023-08-06T03:13:35;7.79;;;7.79;;
68942;SDS011;60852;52.190;4.422;2023-08-06T03:16:01;8.01;;;8.01;;
68942;SDS011;60852;52.190;4.422;2023-08-06T03:18:26;7.39;;;7.39;;
68942;SDS011;60852;52.190;4.422;2023-08-06T03:20:52;6.99;;;6.99;;
68942;SDS011;60852;52.190;4.422;2023-08-06T03:23:18;6.12;;;6.12;;
68942;SDS011;60852;52.190;4.422;2023-08-06T03:25:44;4.99;;;4.99;;
68942;SDS011;60852;52.190;4.422;2023-08-06T03:28:09;4.03;;;4.03;;
68942;SDS011;60852;52.190;4.422;2023-08-06T03:30:35;3.51;;;3.51;;
68942;SDS011;60852;52.190;4.422;2023-08-06T03:33:01;3.25;;;3.25;;
68942;SDS011;60852;52.190;4.422;2023-08-06T03:35:26;3.39;;;3.38;;
68942;SDS011;60852;52.190;4.422;2023-08-06T03:37:52;3.66;;;3.66;;
68942;SDS011;60852;52.190;4.422;2023-08-06T03:40:17;3.57;;;3.57;;
68942;SDS011;60852;52.190;4.422;2023-08-06T03:42:43;3.92;;;3.92;;
68942;SDS011;60852;52.190;4.422;2023-08-06T03:45:08;3.80;;;3.80;;
68942;SDS011;60852;52.190;4.422;2023-08-06T03:47:34;3.52;;;3.52;;
68942;SDS011;60852;52.190;4.422;2023-08-06T03:49:59;3.72;;;3.72;;
68942;SDS011;60852;52.190;4.422;2023-08-06T03:52:25;3.59;;;3.59;;
68942;SDS011;60852;52.190;4.422;2023-08-06T03:54:51;3.72;;;3.72;;
68942;SDS011;60852;52.190;4.422;2023-08-06T03:57:16;3.79;;;3.78;;
68942;SDS011;60852;52.190;4.422;2023-08-06T03:59:42;3.99;;;3.98;;
68942;SDS011;60852;52.190;4.422;2023-08-06T04:02:08;4.05;;;4.00;;
68942;SDS011;60852;52.190;4.422;2023-08-06T04:04:33;3.90;;;3.87;;
68942;SDS011;60852;52.190;4.422;2023-08-06T04:06:59;4.12;;;4.07;;
68942;SDS011;60852;52.190;4.422;2023-08-06T04:09:24;4.15;;;4.14;;
68942;SDS011;60852;52.190;4.422;2023-08-06T04:11:49;3.85;;;3.85;;
68942;SDS011;60852;52.190;4.422;2023-08-06T04:14:15;3.99;;;3.99;;
68942;SDS011;60852;52.190;4.422;2023-08-06T04:16:40;4.32;;;4.32;;
68942;SDS011;60852;52.190;4.422;2023-08-06T04:19:06;4.13;;;4.13;;
68942;SDS011;60852;52.190;4.422;2023-08-06T04:21:31;4.44;;;4.44;;
68942;SDS011;60852;52.190;4.422;2023-08-06T04:23:57;4.24;;;4.24;;
68942;SDS011;60852;52.190;4.422;2023-08-06T04:26:22;4.17;;;4.17;;
68942;SDS011;60852;52.190;4.422;2023-08-06T04:28:48;4.50;;;4.50;;
68942;SDS011;60852;52.190;4.422;2023-08-06T04:31:14;4.79;;;4.79;;
68942;SDS011;60852;52.190;4.422;2023-08-06T04:33:40;4.46;;;4.46;;
68942;SDS011;60852;52.190;4.422;2023-08-06T04:36:05;4.82;;;4.82;;
68942;SDS011;60852;52.190;4.422;2023-08-06T04:38:31;4.25;;;4.25;;
68942;SDS011;60852;52.190;4.422;2023-08-06T04:40:57;4.08;;;4.07;;
68942;SDS011;60852;52.190;4.422;2023-08-06T04:43:23;4.14;;;4.14;;
68942;SDS011;60852;52.190;4.422;2023-08-06T04:45:49;4.06;;;4.06;;
68942;SDS011;60852;52.190;4.422;2023-08-06T04:48:17;4.33;;;4.33;;
68942;SDS011;60852;52.190;4.422;2023-08-06T04:50:43;4.40;;;4.40;;
68942;SDS011;60852;52.190;4.422;2023-08-06T04:53:13;4.40;;;4.40;;
68942;SDS011;60852;52.190;4.422;2023-08-06T04:55:39;4.49;;;4.49;;
68942;SDS011;60852;52.190;4.422;2023-08-06T04:58:05;4.41;;;4.37;;
68942;SDS011;60852;52.190;4.422;2023-08-06T05:00:31;4.41;;;4.41;;
68942;SDS011;60852;52.190;4.422;2023-08-06T05:02:59;4.14;;;4.14;;
68942;SDS011;60852;52.190;4.422;2023-08-06T05:05:25;4.51;;;4.51;;
68942;SDS011;60852;52.190;4.422;2023-08-06T05:07:50;4.19;;;4.19;;
68942;SDS011;60852;52.190;4.422;2023-08-06T05:10:16;4.07;;;4.07;;
68942;SDS011;60852;52.190;4.422;2023-08-06T05:12:42;4.45;;;4.45;;
68942;SDS011;60852;52.190;4.422;2023-08-06T05:15:07;4.09;;;4.09;;
68942;SDS011;60852;52.190;4.422;2023-08-06T05:17:33;3.95;;;3.95;;
68942;SDS011;60852;52.190;4.422;2023-08-06T05:19:59;4.00;;;3.99;;
68942;SDS011;60852;52.190;4.422;2023-08-06T05:22:25;4.41;;;4.36;;
68942;SDS011;60852;52.190;4.422;2023-08-06T05:24:50;4.37;;;4.34;;
68942;SDS011;60852;52.190;4.422;2023-08-06T05:27:16;4.13;;;4.09;;
68942;SDS011;60852;52.190;4.422;2023-08-06T05:29:44;4.12;;;4.11;;
68942;SDS011;60852;52.190;4.422;2023-08-06T05:32:09;4.03;;;4.03;;
68942;SDS011;60852;52.190;4.422;2023-08-06T05:34:35;3.70;;;3.69;;
68942;SDS011;60852;52.190;4.422;2023-08-06T05:37:01;3.48;;;3.47;;
68942;SDS011;60852;52.190;4.422;2023-08-06T05:39:27;3.38;;;3.37;;
68942;SDS011;60852;52.190;4.422;2023-08-06T05:41:52;3.25;;;3.23;;
68942;SDS011;60852;52.190;4.422;2023-08-06T05:44:18;3.16;;;3.14;;
68942;SDS011;60852;52.190;4.422;2023-08-06T05:46:43;2.89;;;2.86;;
68942;SDS011;60852;52.190;4.422;2023-08-06T05:49:08;2.89;;;2.84;;
68942;SDS011;60852;52.190;4.422;2023-08-06T05:51:34;3.00;;;2.93;;
68942;SDS011;60852;52.190;4.422;2023-08-06T05:53:59;2.62;;;2.53;;
68942;SDS011;60852;52.190;4.422;2023-08-06T05:56:25;2.39;;;2.30;;
68942;SDS011;60852;52.190;4.422;2023-08-06T05:58:50;2.31;;;2.24;;
68942;SDS011;60852;52.190;4.422;2023-08-06T06:01:18;2.20;;;2.13;;
68942;SDS011;60852;52.190;4.422;2023-08-06T06:03:43;2.06;;;2.00;;
68942;SDS011;60852;52.190;4.422;2023-08-06T06:06:09;2.09;;;2.01;;
68942;SDS011;60852;52.190;4.422;2023-08-06T06:08:34;1.88;;;1.81;;
68942;SDS011;60852;52.190;4.422;2023-08-06T06:11:00;1.98;;;1.90;;
68942;SDS011;60852;52.190;4.422;2023-08-06T06:13:25;1.82;;;1.74;;
68942;SDS011;60852;52.190;4.422;2023-08-06T06:15:53;1.69;;;1.62;;
68942;SDS011;60852;52.190;4.422;2023-08-06T06:18:20;1.57;;;1.50;;
68942;SDS011;60852;52.190;4.422;2023-08-06T06:20:45;1.59;;;1.52;;
68942;SDS011;60852;52.190;4.422;2023-08-06T06:23:10;1.53;;;1.46;;
68942;SDS011;60852;52.190;4.422;2023-08-06T06:25:36;1.69;;;1.56;;
68942;SDS011;60852;52.190;4.422;2023-08-06T06:28:01;1.47;;;1.35;;
68942;SDS011;60852;52.190;4.422;2023-08-06T06:30:27;1.43;;;1.31;;
68942;SDS011;60852;52.190;4.422;2023-08-06T06:32:52;1.79;;;1.62;;
68942;SDS011;60852;52.190;4.422;2023-08-06T06:35:18;1.85;;;1.67;;
68942;SDS011;60852;52.190;4.422;2023-08-06T06:37:43;1.92;;;1.75;;
68942;SDS011;60852;52.190;4.422;2023-08-06T06:40:09;1.74;;;1.59;;
68942;SDS011;60852;52.190;4.422;2023-08-06T06:42:35;1.90;;;1.73;;
68942;SDS011;60852;52.190;4.422;2023-08-06T06:45:00;1.92;;;1.74;;
68942;SDS011;60852;52.190;4.422;2023-08-06T06:47:26;1.81;;;1.65;;
68942;SDS011;60852;52.190;4.422;2023-08-06T06:49:51;1.82;;;1.72;;
68942;SDS011;60852;52.190;4.422;2023-08-06T06:52:17;1.53;;;1.46;;
68942;SDS011;60852;52.190;4.422;2023-08-06T06:54:42;1.90;;;1.81;;
68942;SDS011;60852;52.190;4.422;2023-08-06T06:57:08;1.79;;;1.68;;
68942;SDS011;60852;52.190;4.422;2023-08-06T06:59:33;1.74;;;1.66;;
68942;SDS011;60852;52.190;4.422;2023-08-06T07:01:59;1.90;;;1.82;;
68942;SDS011;60852;52.190;4.422;2023-08-06T07:04:24;2.07;;;1.98;;
68942;SDS011;60852;52.190;4.422;2023-08-06T07:06:49;1.89;;;1.80;;
68942;SDS011;60852;52.190;4.422;2023-08-06T07:09:17;2.18;;;2.08;;
68942;SDS011;60852;52.190;4.422;2023-08-06T07:11:42;1.91;;;1.84;;
68942;SDS011;60852;52.190;4.422;2023-08-06T07:14:09;2.03;;;1.97;;
68942;SDS011;60852;52.190;4.422;2023-08-06T07:16:34;1.77;;;1.72;;
68942;SDS011;60852;52.190;4.422;2023-08-06T07:19:00;1.89;;;1.84;;
68942;SDS011;60852;52.190;4.422;2023-08-06T07:21:25;1.92;;;1.86;;
68942;SDS011;60852;52.190;4.422;2023-08-06T07:23:51;1.86;;;1.77;;
68942;SDS011;60852;52.190;4.422;2023-08-06T07:26:16;1.81;;;1.71;;
68942;SDS011;60852;52.190;4.422;2023-08-06T07:28:42;1.94;;;1.87;;
68942;SDS011;60852;52.190;4.422;2023-08-06T07:31:08;1.51;;;1.46;;
68942;SDS011;60852;52.190;4.422;2023-08-06T07:33:33;1.56;;;1.51;;
68942;SDS011;60852;52.190;4.422;2023-08-06T07:35:59;1.77;;;1.70;;
68942;SDS011;60852;52.190;4.422;2023-08-06T07:38:24;1.81;;;1.75;;
68942;SDS011;60852;52.190;4.422;2023-08-06T07:40:51;1.64;;;1.59;;
68942;SDS011;60852;52.190;4.422;2023-08-06T07:43:16;1.94;;;1.90;;
68942;SDS011;60852;52.190;4.422;2023-08-06T07:45:42;2.02;;;1.97;;
68942;SDS011;60852;52.190;4.422;2023-08-06T07:48:07;1.82;;;1.77;;
68942;SDS011;60852;52.190;4.422;2023-08-06T07:50:33;1.83;;;1.80;;
68942;SDS011;60852;52.190;4.422;2023-08-06T07:52:58;1.70;;;1.67;;
68942;SDS011;60852;52.190;4.422;2023-08-06T07:55:24;1.80;;;1.77;;
68942;SDS011;60852;52.190;4.422;2023-08-06T07:57:50;2.00;;;1.97;;
68942;SDS011;60852;52.190;4.422;2023-08-06T08:00:15;1.97;;;1.94;;
68942;SDS011;60852;52.190;4.422;2023-08-06T08:02:41;2.10;;;2.04;;
68942;SDS011;60852;52.190;4.422;2023-08-06T08:05:06;2.22;;;2.15;;
68942;SDS011;60852;52.190;4.422;2023-08-06T08:07:33;2.02;;;1.96;;
68942;SDS011;60852;52.190;4.422;2023-08-06T08:09:59;2.09;;;2.03;;
68942;SDS011;60852;52.190;4.422;2023-08-06T08:12:24;2.43;;;2.37;;
68942;SDS011;60852;52.190;4.422;2023-08-06T08:14:50;2.34;;;2.30;;
68942;SDS011;60852;52.190;4.422;2023-08-06T08:17:15;2.54;;;2.51;;
68942;SDS011;60852;52.190;4.422;2023-08-06T08:19:41;2.35;;;2.31;;
68942;SDS011;60852;52.190;4.422;2023-08-06T08:22:06;2.26;;;2.21;;
68942;SDS011;60852;52.190;4.422;2023-08-06T08:24:32;2.22;;;2.17;;
68942;SDS011;60852;52.190;4.422;2023-08-06T08:26:57;2.33;;;2.30;;
68942;SDS011;60852;52.190;4.422;2023-08-06T08:29:23;2.31;;;2.28;;
68942;SDS011;60852;52.190;4.422;2023-08-06T08:31:49;2.39;;;2.35;;
68942;SDS011;60852;52.190;4.422;2023-08-06T08:34:18;2.41;;;2.39;;
68942;SDS011;60852;52.190;4.422;2023-08-06T08:36:43;2.47;;;2.44;;
68942;SDS011;60852;52.190;4.422;2023-08-06T08:39:12;2.41;;;2.39;;
68942;SDS011;60852;52.190;4.422;2023-08-06T08:41:40;2.33;;;2.32;;
68942;SDS011;60852;52.190;4.422;2023-08-06T08:44:10;2.34;;;2.32;;
68942;SDS011;60852;52.190;4.422;2023-08-06T08:46:38;2.57;;;2.54;;
68942;SDS011;60852;52.190;4.422;2023-08-06T08:49:05;2.63;;;2.58;;
68942;SDS011;60852;52.190;4.422;2023-08-06T08:51:32;2.29;;;2.25;;
68942;SDS011;60852;52.190;4.422;2023-08-06T08:54:01;2.41;;;2.37;;
68942;SDS011;60852;52.190;4.422;2023-08-06T08:56:28;2.34;;;2.33;;
68942;SDS011;60852;52.190;4.422;2023-08-06T08:58:54;1.90;;;1.89;;
68942;SDS011;60852;52.190;4.422;2023-08-06T09:01:21;2.10;;;2.08;;
68942;SDS011;60852;52.190;4.422;2023-08-06T09:03:47;2.16;;;2.13;;
68942;SDS011;60852;52.190;4.422;2023-08-06T09:06:13;2.22;;;2.20;;
68942;SDS011;60852;52.190;4.422;2023-08-06T09:08:46;2.08;;;2.07;;
68942;SDS011;60852;52.190;4.422;2023-08-06T09:11:19;2.13;;;2.12;;
68942;SDS011;60852;52.190;4.422;2023-08-06T09:13:47;2.03;;;2.02;;
68942;SDS011;60852;52.190;4.422;2023-08-06T09:16:13;1.99;;;1.97;;
68942;SDS011;60852;52.190;4.422;2023-08-06T09:18:38;1.91;;;1.89;;
68942;SDS011;60852;52.190;4.422;2023-08-06T09:21:05;1.66;;;1.65;;
68942;SDS011;60852;52.190;4.422;2023-08-06T09:23:31;1.76;;;1.75;;
68942;SDS011;60852;52.190;4.422;2023-08-06T09:25:58;1.78;;;1.78;;
68942;SDS011;60852;52.190;4.422;2023-08-06T09:28:24;1.72;;;1.72;;
68942;SDS011;60852;52.190;4.422;2023-08-06T09:30:50;1.71;;;1.70;;
68942;SDS011;60852;52.190;4.422;2023-08-06T09:33:18;1.76;;;1.75;;
68942;SDS011;60852;52.190;4.422;2023-08-06T09:35:45;1.80;;;1.79;;
68942;SDS011;60852;52.190;4.422;2023-08-06T09:38:12;1.69;;;1.67;;
68942;SDS011;60852;52.190;4.422;2023-08-06T09:40:38;1.81;;;1.78;;
68942;SDS011;60852;52.190;4.422;2023-08-06T09:43:05;2.05;;;2.02;;
68942;SDS011;60852;52.190;4.422;2023-08-06T09:45:32;1.95;;;1.93;;
68942;SDS011;60852;52.190;4.422;2023-08-06T09:47:59;1.70;;;1.69;;
68942;SDS011;60852;52.190;4.422;2023-08-06T09:50:28;1.66;;;1.65;;
68942;SDS011;60852;52.190;4.422;2023-08-06T09:52:56;1.77;;;1.75;;
68942;SDS011;60852;52.190;4.422;2023-08-06T09:55:23;2.10;;;2.08;;
68942;SDS011;60852;52.190;4.422;2023-08-06T09:57:51;1.65;;;1.64;;
68942;SDS011;60852;52.190;4.422;2023-08-06T10:00:18;1.95;;;1.94;;
68942;SDS011;60852;52.190;4.422;2023-08-06T10:02:45;1.76;;;1.76;;
68942;SDS011;60852;52.190;4.422;2023-08-06T10:05:11;1.77;;;1.77;;
68942;SDS011;60852;52.190;4.422;2023-08-06T10:07:37;1.83;;;1.83;;
68942;SDS011;60852;52.190;4.422;2023-08-06T10:10:06;1.83;;;1.83;;
68942;SDS011;60852;52.190;4.422;2023-08-06T10:12:51;1.69;;;1.69;;
68942;SDS011;60852;52.190;4.422;2023-08-06T10:15:22;1.91;;;1.91;;
68942;SDS011;60852;52.190;4.422;2023-08-06T10:17:51;1.73;;;1.73;;
68942;SDS011;60852;52.190;4.422;2023-08-06T10:20:21;1.85;;;1.85;;
68942;SDS011;60852;52.190;4.422;2023-08-06T10:23:00;1.75;;;1.75;;
68942;SDS011;60852;52.190;4.422;2023-08-06T10:25:28;1.95;;;1.94;;
68942;SDS011;60852;52.190;4.422;2023-08-06T10:27:57;1.65;;;1.63;;
68942;SDS011;60852;52.190;4.422;2023-08-06T10:30:23;1.79;;;1.77;;
68942;SDS011;60852;52.190;4.422;2023-08-06T10:32:54;1.84;;;1.81;;
68942;SDS011;60852;52.190;4.422;2023-08-06T10:37:57;1.67;;;1.65;;
68942;SDS011;60852;52.190;4.422;2023-08-06T10:40:23;1.70;;;1.68;;
68942;SDS011;60852;52.190;4.422;2023-08-06T10:42:51;1.85;;;1.83;;
68942;SDS011;60852;52.190;4.422;2023-08-06T10:45:17;1.89;;;1.88;;
68942;SDS011;60852;52.190;4.422;2023-08-06T10:47:44;2.14;;;2.13;;
68942;SDS011;60852;52.190;4.422;2023-08-06T10:50:11;1.78;;;1.76;;
68942;SDS011;60852;52.190;4.422;2023-08-06T10:52:41;1.54;;;1.52;;
68942;SDS011;60852;52.190;4.422;2023-08-06T10:55:07;1.73;;;1.72;;
68942;SDS011;60852;52.190;4.422;2023-08-06T10:57:34;1.79;;;1.79;;
68942;SDS011;60852;52.190;4.422;2023-08-06T11:00:00;1.58;;;1.58;;
68942;SDS011;60852;52.190;4.422;2023-08-06T11:02:25;1.60;;;1.59;;
68942;SDS011;60852;52.190;4.422;2023-08-06T11:04:51;1.81;;;1.79;;
68942;SDS011;60852;52.190;4.422;2023-08-06T11:07:16;1.75;;;1.74;;
68942;SDS011;60852;52.190;4.422;2023-08-06T11:09:42;1.68;;;1.66;;
68942;SDS011;60852;52.190;4.422;2023-08-06T11:12:10;1.72;;;1.70;;
68942;SDS011;60852;52.190;4.422;2023-08-06T11:14:36;1.76;;;1.74;;
68942;SDS011;60852;52.190;4.422;2023-08-06T11:17:04;1.63;;;1.61;;
68942;SDS011;60852;52.190;4.422;2023-08-06T11:19:30;1.73;;;1.70;;
68942;SDS011;60852;52.190;4.422;2023-08-06T11:21:56;1.49;;;1.45;;
68942;SDS011;60852;52.190;4.422;2023-08-06T11:24:23;1.47;;;1.44;;
68942;SDS011;60852;52.190;4.422;2023-08-06T11:26:49;1.42;;;1.40;;
68942;SDS011;60852;52.190;4.422;2023-08-06T11:29:15;1.29;;;1.26;;
68942;SDS011;60852;52.190;4.422;2023-08-06T11:31:41;1.23;;;1.19;;
68942;SDS011;60852;52.190;4.422;2023-08-06T11:34:06;1.39;;;1.33;;
68942;SDS011;60852;52.190;4.422;2023-08-06T11:36:33;1.41;;;1.33;;
68942;SDS011;60852;52.190;4.422;2023-08-06T11:39:01;1.38;;;1.30;;
68942;SDS011;60852;52.190;4.422;2023-08-06T11:41:30;1.26;;;1.20;;
68942;SDS011;60852;52.190;4.422;2023-08-06T11:43:57;1.09;;;1.04;;
68942;SDS011;60852;52.190;4.422;2023-08-06T11:46:24;1.21;;;1.17;;
68942;SDS011;60852;52.190;4.422;2023-08-06T11:48:54;1.35;;;1.31;;
68942;SDS011;60852;52.190;4.422;2023-08-06T11:51:26;1.27;;;1.23;;
68942;SDS011;60852;52.190;4.422;2023-08-06T11:53:58;1.32;;;1.26;;
68942;SDS011;60852;52.190;4.422;2023-08-06T11:56:24;1.10;;;1.06;;
68942;SDS011;60852;52.190;4.422;2023-08-06T11:58:51;1.01;;;0.98;;
68942;SDS011;60852;52.190;4.422;2023-08-06T12:01:17;1.09;;;1.05;;
68942;SDS011;60852;52.190;4.422;2023-08-06T12:03:43;1.18;;;1.13;;
68942;SDS011;60852;52.190;4.422;2023-08-06T12:06:09;1.18;;;1.14;;
68942;SDS011;60852;52.190;4.422;2023-08-06T12:08:34;1.30;;;1.25;;
68942;SDS011;60852;52.190;4.422;2023-08-06T12:11:00;1.38;;;1.32;;
68942;SDS011;60852;52.190;4.422;2023-08-06T12:13:25;1.47;;;1.41;;
68942;SDS011;60852;52.190;4.422;2023-08-06T12:15:51;1.32;;;1.26;;
68942;SDS011;60852;52.190;4.422;2023-08-06T12:18:18;1.15;;;1.10;;
68942;SDS011;60852;52.190;4.422;2023-08-06T12:20:44;1.08;;;1.02;;
68942;SDS011;60852;52.190;4.422;2023-08-06T12:23:10;1.08;;;1.02;;
68942;SDS011;60852;52.190;4.422;2023-08-06T12:25:35;1.58;;;1.44;;
68942;SDS011;60852;52.190;4.422;2023-08-06T12:28:01;1.30;;;1.19;;
68942;SDS011;60852;52.190;4.422;2023-08-06T12:30:26;1.32;;;1.19;;
68942;SDS011;60852;52.190;4.422;2023-08-06T12:32:52;1.42;;;1.30;;
68942;SDS011;60852;52.190;4.422;2023-08-06T12:35:17;1.32;;;1.21;;
68942;SDS011;60852;52.190;4.422;2023-08-06T12:37:43;1.52;;;1.40;;
68942;SDS011;60852;52.190;4.422;2023-08-06T12:40:09;1.17;;;1.09;;
68942;SDS011;60852;52.190;4.422;2023-08-06T12:42:35;1.43;;;1.33;;
68942;SDS011;60852;52.190;4.422;2023-08-06T12:45:00;1.38;;;1.27;;
68942;SDS011;60852;52.190;4.422;2023-08-06T12:47:26;1.65;;;1.50;;
68942;SDS011;60852;52.190;4.422;2023-08-06T12:49:51;1.51;;;1.36;;
68942;SDS011;60852;52.190;4.422;2023-08-06T12:52:17;1.90;;;1.68;;
68942;SDS011;60852;52.190;4.422;2023-08-06T12:54:45;1.66;;;1.47;;
68942;SDS011;60852;52.190;4.422;2023-08-06T12:57:11;1.74;;;1.56;;
68942;SDS011;60852;52.190;4.422;2023-08-06T12:59:36;1.62;;;1.46;;
68942;SDS011;60852;52.190;4.422;2023-08-06T13:02:02;1.51;;;1.36;;
68942;SDS011;60852;52.190;4.422;2023-08-06T13:04:28;1.38;;;1.27;;
68942;SDS011;60852;52.190;4.422;2023-08-06T13:06:54;1.58;;;1.48;;
68942;SDS011;60852;52.190;4.422;2023-08-06T13:09:19;1.48;;;1.38;;
68942;SDS011;60852;52.190;4.422;2023-08-06T13:11:45;1.49;;;1.40;;
68942;SDS011;60852;52.190;4.422;2023-08-06T13:14:12;1.31;;;1.22;;
68942;SDS011;60852;52.190;4.422;2023-08-06T13:16:40;1.88;;;1.68;;
68942;SDS011;60852;52.190;4.422;2023-08-06T13:19:07;3.06;;;2.50;;
68942;SDS011;60852;52.190;4.422;2023-08-06T13:21:34;4.43;;;3.29;;
68942;SDS011;60852;52.190;4.422;2023-08-06T13:24:20;4.11;;;2.87;;
68942;SDS011;60852;52.190;4.422;2023-08-06T13:26:46;4.84;;;3.21;;
68942;SDS011;60852;52.190;4.422;2023-08-06T13:29:11;6.24;;;3.98;;
68942;SDS011;60852;52.190;4.422;2023-08-06T13:31:37;6.45;;;4.01;;
68942;SDS011;60852;52.190;4.422;2023-08-06T13:34:02;9.55;;;5.75;;
68942;SDS011;60852;52.190;4.422;2023-08-06T13:36:28;11.04;;;6.58;;
68942;SDS011;60852;52.190;4.422;2023-08-06T13:38:54;9.53;;;5.81;;
68942;SDS011;60852;52.190;4.422;2023-08-06T13:41:20;8.27;;;5.01;;
68942;SDS011;60852;52.190;4.422;2023-08-06T13:43:46;6.75;;;4.12;;
68942;SDS011;60852;52.190;4.422;2023-08-06T13:46:12;5.70;;;3.51;;
68942;SDS011;60852;52.190;4.422;2023-08-06T13:48:45;5.60;;;3.47;;
68942;SDS011;60852;52.190;4.422;2023-08-06T13:51:12;6.04;;;3.74;;
68942;SDS011;60852;52.190;4.422;2023-08-06T13:53:39;6.59;;;4.03;;
68942;SDS011;60852;52.190;4.422;2023-08-06T13:56:06;4.82;;;2.98;;
68942;SDS011;60852;52.190;4.422;2023-08-06T13:58:32;5.36;;;3.30;;
68942;SDS011;60852;52.190;4.422;2023-08-06T14:00:58;4.47;;;2.75;;
68942;SDS011;60852;52.190;4.422;2023-08-06T14:03:24;5.72;;;3.50;;
68942;SDS011;60852;52.190;4.422;2023-08-06T14:05:50;6.77;;;4.18;;
68942;SDS011;60852;52.190;4.422;2023-08-06T14:08:16;7.04;;;4.36;;
68942;SDS011;60852;52.190;4.422;2023-08-06T14:10:43;7.41;;;4.60;;
68942;SDS011;60852;52.190;4.422;2023-08-06T14:13:10;7.66;;;4.76;;
68942;SDS011;60852;52.190;4.422;2023-08-06T14:15:35;6.97;;;4.36;;
68942;SDS011;60852;52.190;4.422;2023-08-06T14:18:01;6.58;;;4.07;;
68942;SDS011;60852;52.190;4.422;2023-08-06T14:20:27;6.09;;;3.81;;
68942;SDS011;60852;52.190;4.422;2023-08-06T14:22:53;7.54;;;4.68;;
68942;SDS011;60852;52.190;4.422;2023-08-06T14:25:19;8.63;;;5.24;;
68942;SDS011;60852;52.190;4.422;2023-08-06T14:27:44;8.62;;;5.26;;
68942;SDS011;60852;52.190;4.422;2023-08-06T14:30:10;7.86;;;4.86;;
68942;SDS011;60852;52.190;4.422;2023-08-06T14:32:35;6.70;;;4.22;;
68942;SDS011;60852;52.190;4.422;2023-08-06T14:35:02;5.84;;;3.72;;
68942;SDS011;60852;52.190;4.422;2023-08-06T14:37:27;5.25;;;3.44;;
68942;SDS011;60852;52.190;4.422;2023-08-06T14:39:53;4.37;;;2.86;;
68942;SDS011;60852;52.190;4.422;2023-08-06T14:42:18;5.15;;;3.40;;
68942;SDS011;60852;52.190;4.422;2023-08-06T14:44:44;5.78;;;3.78;;
68942;SDS011;60852;52.190;4.422;2023-08-06T14:47:09;6.00;;;3.89;;
68942;SDS011;60852;52.190;4.422;2023-08-06T14:49:35;6.84;;;4.40;;
68942;SDS011;60852;52.190;4.422;2023-08-06T14:52:00;8.10;;;5.17;;
68942;SDS011;60852;52.190;4.422;2023-08-06T14:54:27;8.14;;;5.22;;